Statia Express — V7TT3 — position and weather

sailwx.info

Track history (hours):
 
Tides and Currents Weather Stations Pressure Air Temp Water Temp Dewpoint Dewpoint Depression Visibility Wind Speed Wind Dir Waves Ship Positions

Statia Express

Last reported at 2015-Apr-24 22:33 UTC. Time now 2015-Apr-28 05:17 UTC.
Position N 17°50' W 063°03'.

Length 28 m; draft 4.1 m.

Type: Tug. MMSI: 538003879.

Date/timePositionNaut miles runAvg speedWind from/ knotsBaromVisibWave heightAir tempDewpointWater temp
2015-Apr-24 22:33N 17°50' W 063°03'6 6.3
2015-Apr-24 21:33N 17°56' W 063°04'5 0.8
2015-Apr-24 15:28N 18°00' W 063°03'0 0.0
2015-Apr-24 03:21N 18°01' W 063°03'0 0.0
2015-Apr-23 22:32N 18°01' W 063°03'1 0.2
2015-Apr-23 20:04N 18°01' W 063°03'0 0.0
2015-Apr-23 19:08N 18°01' W 063°03'0 0.0
2015-Apr-23 16:33N 18°01' W 063°03'0 0.3
2015-Apr-23 15:33N 18°00' W 063°03'0 0.2
2015-Apr-23 14:18N 18°01' W 063°03'0 0.0
2015-Apr-23 13:18N 18°01' W 063°03'0 0.3
2015-Apr-23 12:26N 18°01' W 063°03'0 0.1
2015-Apr-23 11:05N 18°01' W 063°03'1 0.1
2015-Apr-23 05:24N 18°01' W 063°04'3 3.1
2015-Apr-23 04:32N 17°58' W 063°05'5 5.4
2015-Apr-23 03:31N 17°53' W 063°04'5 5.4
2015-Apr-23 02:30N 17°47' W 063°03'  
2015-Apr-20 03:28N 17°48' W 063°03'5 5.2
2015-Apr-20 02:26N 17°53' W 063°04'5 5.5
2015-Apr-20 01:26N 17°59' W 063°05'3 0.9
2015-Apr-19 22:29N 18°01' W 063°03'0 0.0
2015-Apr-19 07:13N 18°00' W 063°03'0 0.0
2015-Apr-19 01:29N 18°00' W 063°03'0 0.0
2015-Apr-18 17:19N 18°01' W 063°03'0 0.0
2015-Apr-18 15:25N 18°01' W 063°03'0 0.0
2015-Apr-18 14:33N 18°01' W 063°03'0 0.0
2015-Apr-18 13:30N 18°01' W 063°03'0 0.1
2015-Apr-18 11:21N 18°01' W 063°03'0 0.2
2015-Apr-18 10:33N 18°01' W 063°03'0 0.0
2015-Apr-18 09:09N 18°01' W 063°03'0 0.0
2015-Apr-18 07:09N 18°01' W 063°03'0 0.0
2015-Apr-18 06:12N 18°01' W 063°03'0 0.0
2015-Apr-18 03:25N 18°01' W 063°03'0 0.0
2015-Apr-18 02:16N 18°01' W 063°03'0 0.0
2015-Apr-17 21:09N 18°01' W 063°03'0 0.0
2015-Apr-17 18:31N 18°01' W 063°03'0 0.0
2015-Apr-17 15:08N 18°01' W 063°03'0 0.0
2015-Apr-17 08:04N 18°01' W 063°03'0 0.0
2015-Apr-17 07:28N 18°01' W 063°03'0 0.0
2015-Apr-17 06:11N 18°01' W 063°03'0 0.0
2015-Apr-17 04:05N 18°01' W 063°03'0 0.0
2015-Apr-17 03:30N 18°01' W 063°03'0 0.0
2015-Apr-17 02:14N 18°01' W 063°03'0 0.0
2015-Apr-17 00:12N 18°01' W 063°03'0 0.0
2015-Apr-16 23:29N 18°01' W 063°03'0 0.0
2015-Apr-16 21:31N 18°01' W 063°03'0 0.0
2015-Apr-16 20:09N 18°01' W 063°03'0 0.1
2015-Apr-16 19:30N 18°01' W 063°03'0 0.1
2015-Apr-16 14:32N 18°00' W 063°03'3 2.8
2015-Apr-16 13:32N 17°59' W 063°06'5 4.9
2015-Apr-16 12:31N 17°54' W 063°06'5 5.3
2015-Apr-16 11:30N 17°49' W 063°05'5 4.9
2015-Apr-16 10:32N 17°45' W 063°04'6 0.3
2015-Apr-15 12:28N 17°38' W 063°05'5 5.0
2015-Apr-15 11:23N 17°44' W 063°06'4 5.2
2015-Apr-15 10:33N 17°48' W 063°06'6 5.4
2015-Apr-15 09:27N 17°54' W 063°07'7 5.2
2015-Apr-15 08:12N 18°01' W 063°06'1 1.0
2015-Apr-15 07:22N 18°01' W 063°05'0 0.0
2015-Apr-15 05:30N 18°01' W 063°05'0 0.0
2015-Apr-15 04:29N 18°01' W 063°05'0 0.0
2015-Apr-15 02:32N 18°01' W 063°05'0 0.0
2015-Apr-15 01:31N 18°01' W 063°05'0 0.0
2015-Apr-15 00:17N 18°01' W 063°05'0 0.0
2015-Apr-14 23:33N 18°01' W 063°05'  
Track history (hours):
 
Tides and Currents Weather Stations Pressure Air Temp Water Temp Dewpoint Dewpoint Depression Visibility Wind Speed Wind Dir Waves Ship Positions

Statia Express

Last reported at 2015-Apr-24 22:33 UTC. Time now 2015-Apr-28 05:17 UTC.
Position N 17°50' W 063°03'.

Length 28 m; draft 4.1 m.

Type: Tug. MMSI: 538003879.

Date/timePositionNaut miles runAvg speedWind from/ knotsBaromVisibWave heightAir tempDewpointWater temp
2015-Apr-24 22:33N 17°50' W 063°03'6 6.3
2015-Apr-24 21:33N 17°56' W 063°04'5 0.8
2015-Apr-24 15:28N 18°00' W 063°03'0 0.0
2015-Apr-24 03:21N 18°01' W 063°03'0 0.0
2015-Apr-23 22:32N 18°01' W 063°03'1 0.2
2015-Apr-23 20:04N 18°01' W 063°03'0 0.0
2015-Apr-23 19:08N 18°01' W 063°03'0 0.0
2015-Apr-23 16:33N 18°01' W 063°03'0 0.3
2015-Apr-23 15:33N 18°00' W 063°03'0 0.2
2015-Apr-23 14:18N 18°01' W 063°03'0 0.0
2015-Apr-23 13:18N 18°01' W 063°03'0 0.3
2015-Apr-23 12:26N 18°01' W 063°03'0 0.1
2015-Apr-23 11:05N 18°01' W 063°03'1 0.1
2015-Apr-23 05:24N 18°01' W 063°04'3 3.1
2015-Apr-23 04:32N 17°58' W 063°05'5 5.4
2015-Apr-23 03:31N 17°53' W 063°04'5 5.4
2015-Apr-23 02:30N 17°47' W 063°03'  
2015-Apr-20 03:28N 17°48' W 063°03'5 5.2
2015-Apr-20 02:26N 17°53' W 063°04'5 5.5
2015-Apr-20 01:26N 17°59' W 063°05'3 0.9
2015-Apr-19 22:29N 18°01' W 063°03'0 0.0
2015-Apr-19 07:13N 18°00' W 063°03'0 0.0
2015-Apr-19 01:29N 18°00' W 063°03'0 0.0
2015-Apr-18 17:19N 18°01' W 063°03'0 0.0
2015-Apr-18 15:25N 18°01' W 063°03'0 0.0
2015-Apr-18 14:33N 18°01' W 063°03'0 0.0
2015-Apr-18 13:30N 18°01' W 063°03'0 0.1
2015-Apr-18 11:21N 18°01' W 063°03'0 0.2
2015-Apr-18 10:33N 18°01' W 063°03'0 0.0
2015-Apr-18 09:09N 18°01' W 063°03'0 0.0
2015-Apr-18 07:09N 18°01' W 063°03'0 0.0
2015-Apr-18 06:12N 18°01' W 063°03'0 0.0
2015-Apr-18 03:25N 18°01' W 063°03'0 0.0
2015-Apr-18 02:16N 18°01' W 063°03'0 0.0
2015-Apr-17 21:09N 18°01' W 063°03'0 0.0
2015-Apr-17 18:31N 18°01' W 063°03'0 0.0
2015-Apr-17 15:08N 18°01' W 063°03'0 0.0
2015-Apr-17 08:04N 18°01' W 063°03'0 0.0
2015-Apr-17 07:28N 18°01' W 063°03'0 0.0
2015-Apr-17 06:11N 18°01' W 063°03'0 0.0
2015-Apr-17 04:05N 18°01' W 063°03'0 0.0
2015-Apr-17 03:30N 18°01' W 063°03'0 0.0
2015-Apr-17 02:14N 18°01' W 063°03'0 0.0
2015-Apr-17 00:12N 18°01' W 063°03'0 0.0
2015-Apr-16 23:29N 18°01' W 063°03'0 0.0
2015-Apr-16 21:31N 18°01' W 063°03'0 0.0
2015-Apr-16 20:09N 18°01' W 063°03'0 0.1
2015-Apr-16 19:30N 18°01' W 063°03'0 0.1
2015-Apr-16 14:32N 18°00' W 063°03'3 2.8
2015-Apr-16 13:32N 17°59' W 063°06'5 4.9
2015-Apr-16 12:31N 17°54' W 063°06'5 5.3
2015-Apr-16 11:30N 17°49' W 063°05'5 4.9
2015-Apr-16 10:32N 17°45' W 063°04'6 0.3
2015-Apr-15 12:28N 17°38' W 063°05'5 5.0
2015-Apr-15 11:23N 17°44' W 063°06'4 5.2
2015-Apr-15 10:33N 17°48' W 063°06'6 5.4
2015-Apr-15 09:27N 17°54' W 063°07'7 5.2
2015-Apr-15 08:12N 18°01' W 063°06'1 1.0
2015-Apr-15 07:22N 18°01' W 063°05'0 0.0
2015-Apr-15 05:30N 18°01' W 063°05'0 0.0
2015-Apr-15 04:29N 18°01' W 063°05'0 0.0
2015-Apr-15 02:32N 18°01' W 063°05'0 0.0
2015-Apr-15 01:31N 18°01' W 063°05'0 0.0
2015-Apr-15 00:17N 18°01' W 063°05'0 0.0
2015-Apr-14 23:33N 18°01' W 063°05'  

Dump ship's entire track history